Time;durP1;ratioP1;P1;durP2;ratioP2;P2;SDS_P1;SDS_P2;PMS_P1;PMS_P2;Temp;Humidity;BMP_temperature;BMP_pressure;BME280_temperature;BME280_humidity;BME280_pressure;Samples;Min_cycle;Max_cycle;Signal;HPM_P1;HPM_P2
2021/03/21 00:01:36;;;;;;;24.27;10.78;;;;;;;-1.32;63.26;100850.96;1751679;78;27521;-78
2021/03/21 00:04:04;;;;;;;20.82;9.28;;;;;;;-1.32;63.06;100850.11;1771361;80;31951;-78
2021/03/21 00:06:32;;;;;;;25.15;11.10;;;;;;;-1.33;63.13;100846.67;1807361;78;25908;-78
2021/03/21 00:08:59;;;;;;;18.92;9.85;;;;;;;-1.31;63.17;100846.09;1749008;78;25874;-78
2021/03/21 00:11:26;;;;;;;21.50;9.85;;;;;;;-1.31;62.99;100837.36;1749529;78;26408;-78
2021/03/21 00:13:53;;;;;;;19.17;8.50;;;;;;;-1.31;62.99;100837.36;1774174;78;28464;-78
2021/03/21 00:16:21;;;;;;;18.20;7.78;;;;;;;-1.29;63.06;100831.52;1801450;78;26230;-78
2021/03/21 00:18:48;;;;;;;18.30;7.78;;;;;;;-1.30;63.80;100818.84;1744755;78;25938;-78
2021/03/21 00:21:17;;;;;;;15.68;8.20;;;;;;;-1.30;63.80;100818.84;1774581;78;25801;-78
2021/03/21 00:23:45;;;;;;;18.55;7.95;;;;;;;-1.29;63.09;100818.38;1770466;78;25446;-78
2021/03/21 00:26:14;;;;;;;19.73;8.38;;;;;;;-1.27;63.32;100813.86;1715264;81;27537;-78
2021/03/21 00:28:41;;;;;;;17.25;7.62;;;;;;;-1.28;63.46;100810.38;1709396;80;26375;-78
2021/03/21 00:31:13;;;;;;;18.48;9.58;;;;;;;-1.28;63.46;100810.38;1733084;81;26398;-78
2021/03/21 00:33:42;;;;;;;21.45;8.73;;;;;;;-1.31;63.24;100802.73;1731678;80;25699;-78
2021/03/21 00:36:14;;;;;;;18.90;8.83;;;;;;;-1.26;63.25;100807.17;1764127;80;25704;-78
2021/03/21 00:38:46;;;;;;;20.55;10.28;;;;;;;-1.26;63.33;100795.84;1711355;80;28535;-78
2021/03/21 00:41:17;;;;;;;20.15;8.90;;;;;;;-1.26;63.20;100776.14;1708957;80;26174;-78
2021/03/21 00:43:45;;;;;;;19.32;10.10;;;;;;;-1.26;63.20;100776.14;1734302;80;26396;-78
2021/03/21 00:46:13;;;;;;;17.32;8.70;;;;;;;-1.27;63.14;100765.25;1758653;80;26416;-78
2021/03/21 00:48:44;;;;;;;20.80;8.75;;;;;;;-1.27;63.14;100765.25;1704880;80;25927;-78
2021/03/21 00:51:13;;;;;;;17.23;8.18;;;;;;;-1.30;63.27;100748.37;1746359;80;28110;-78
2021/03/21 00:53:42;;;;;;;17.98;9.53;;;;;;;-1.30;63.27;100748.37;1734701;81;25883;-77
2021/03/21 00:56:22;;;;;;;20.35;9.98;;;;;;;-1.30;63.46;100745.74;1748408;81;25785;-77
2021/03/21 00:58:50;;;;;;;17.25;8.58;;;;;;;-1.32;63.32;100736.66;1674801;81;26498;-77
2021/03/21 01:01:17;;;;;;;20.75;9.55;;;;;;;-1.33;63.50;100731.52;1701352;82;25744;-77
2021/03/21 01:03:46;;;;;;;20.15;8.03;;;;;;;-1.33;63.50;100721.02;1725151;81;28291;-77
2021/03/21 01:06:13;;;;;;;17.98;8.90;;;;;;;-1.33;63.53;100718.39;1764027;80;26089;-77
2021/03/21 01:08:41;;;;;;;17.35;8.80;;;;;;;-1.33;63.59;100714.45;1682184;82;26426;-77
2021/03/21 01:11:13;;;;;;;22.55;9.10;;;;;;;-1.34;63.57;100708.34;1682482;81;26412;-77
2021/03/21 01:13:42;;;;;;;24.67;10.00;;;;;;;-1.35;63.66;100707.15;1725644;81;26377;-77
2021/03/21 01:16:17;;;;;;;18.37;9.20;;;;;;;-1.36;63.69;100703.67;1746102;81;27724;-77
2021/03/21 01:18:45;;;;;;;20.02;9.55;;;;;;;-1.41;63.61;100680.00;1723532;81;25811;-77
2021/03/21 01:21:13;;;;;;;21.25;9.45;;;;;;;-1.38;63.85;100684.55;1699793;81;25428;-77
2021/03/21 01:23:41;;;;;;;23.22;8.93;;;;;;;-1.39;63.94;100683.36;1725134;81;25874;-77
2021/03/21 01:26:16;;;;;;;16.15;7.50;;;;;;;-1.40;64.04;100677.26;1749333;81;26471;-77
2021/03/21 01:28:44;;;;;;;18.85;8.60;;;;;;;-1.40;64.19;100665.91;1722769;81;27561;-77
2021/03/21 01:31:16;;;;;;;20.20;8.63;;;;;;;-1.40;64.19;100665.91;1724656;81;25931;-77
2021/03/21 01:33:43;;;;;;;18.98;8.75;;;;;;;-1.41;64.26;100658.98;1724123;81;25883;-77
2021/03/21 01:36:15;;;;;;;18.45;8.80;;;;;;;-1.42;64.27;100643.69;1723461;81;26725;-77
2021/03/21 01:38:43;;;;;;;20.35;9.18;;;;;;;-1.42;64.23;100639.75;1723711;81;25870;-77
2021/03/21 01:41:18;;;;;;;19.77;8.83;;;;;;;-1.41;64.49;100633.53;1702114;81;27713;-78
2021/03/21 01:43:47;;;;;;;22.20;9.60;;;;;;;-1.44;64.37;100625.05;1723075;81;26348;-78
2021/03/21 01:46:22;;;;;;;16.15;7.30;;;;;;;-1.42;64.39;100629.71;1724919;81;26541;-77
2021/03/21 01:48:54;;;;;;;18.37;8.68;;;;;;;-1.41;64.47;100622.20;1717244;81;26426;-77
2021/03/21 01:51:30;;;;;;;19.85;8.45;;;;;;;-1.46;64.56;100614.66;1708688;81;26071;-77
2021/03/21 01:54:02;;;;;;;20.00;8.40;;;;;;;-1.41;64.64;100619.58;1735209;81;27333;-77
2021/03/21 01:56:33;;;;;;;16.77;8.00;;;;;;;-1.40;64.90;100608.95;1765798;80;26081;-78
2021/03/21 01:59:20;;;;;;;15.38;7.83;;;;;;;-1.40;64.90;100608.95;1762590;80;26161;-77
2021/03/21 02:01:49;;;;;;;19.37;8.33;;;;;;;-1.37;64.84;100597.39;1740199;80;25720;-78
2021/03/21 02:04:17;;;;;;;16.52;8.30;;;;;;;-1.38;64.91;100587.34;1720554;81;25853;-77
2021/03/21 02:07:35;;;;;;;15.15;7.47;;;;;;;-1.36;64.98;100578.03;1746962;81;28044;-77
2021/03/21 02:10:24;;;;;;;15.90;7.37;;;;;;;-1.37;65.03;100569.34;1723780;81;25944;-77
2021/03/21 02:13:05;;;;;;;20.02;8.33;;;;;;;-1.34;65.17;100566.47;1734437;81;26300;-77
2021/03/21 02:15:53;;;;;;;17.35;8.08;;;;;;;-1.33;65.38;100556.34;1724477;81;25824;-78
2021/03/21 02:18:31;;;;;;;18.37;8.10;;;;;;;-1.30;65.28;100560.03;1749207;81;25746;-78
2021/03/21 02:21:29;;;;;;;16.02;7.87;;;;;;;-1.29;65.36;100548.59;1732174;81;27527;-78
2021/03/21 02:24:35;;;;;;;17.15;8.23;;;;;;;-1.27;65.54;100545.37;1730137;81;26551;-77
2021/03/21 02:27:27;;;;;;;15.15;8.13;;;;;;;-1.26;65.57;100531.27;1722850;81;25832;-77
2021/03/21 02:30:14;;;;;;;14.43;7.58;;;;;;;-1.25;65.74;100518.97;1726036;81;25856;-77
2021/03/21 02:33:05;;;;;;;15.95;7.97;;;;;;;-1.25;65.88;100511.09;1744714;81;26284;-77
2021/03/21 02:35:43;;;;;;;16.17;7.90;;;;;;;-1.24;65.79;100512.28;1753163;81;27655;-77
2021/03/21 02:38:19;;;;;;;15.55;7.67;;;;;;;-1.22;65.95;100506.93;1721220;81;25896;-77
2021/03/21 02:41:00;;;;;;;18.37;8.18;;;;;;;-1.20;65.88;100503.70;1745183;81;25942;-77
2021/03/21 02:43:33;;;;;;;17.75;8.78;;;;;;;-1.20;66.07;100502.39;1716513;81;25511;-77
2021/03/21 02:46:06;;;;;;;21.02;9.05;;;;;;;-1.21;66.21;100491.04;1722786;81;26081;-77
2021/03/21 02:48:38;;;;;;;14.40;7.00;;;;;;;-1.21;66.21;100491.04;1721821;81;28446;-77
2021/03/21 02:51:11;;;;;;;16.10;7.20;;;;;;;-1.19;66.44;100485.66;1726379;81;25898;-77
2021/03/21 02:53:46;;;;;;;17.48;7.92;;;;;;;-1.20;66.57;100475.65;1723959;81;25778;-77
2021/03/21 02:56:24;;;;;;;15.35;7.92;;;;;;;-1.19;66.55;100474.67;1753203;81;26430;-77
2021/03/21 02:59:11;;;;;;;16.73;7.65;;;;;;;-1.15;66.57;100474.80;1721308;81;25765;-77
2021/03/21 03:01:52;;;;;;;17.25;8.18;;;;;;;-1.12;66.66;100465.86;1725752;81;27539;-77
2021/03/21 03:04:28;;;;;;;;;;;;;;;-1.11;66.63;100457.03;1728685;81;26410;-77
2021/03/21 03:07:01;;;;;;;20.40;8.78;;;;;;;-1.11;66.66;100458.34;1725733;81;25855;-77
2021/03/21 03:09:40;;;;;;;21.35;8.85;;;;;;;-1.10;66.72;100450.80;1711271;82;26707;-78
2021/03/21 03:12:27;;;;;;;18.75;9.23;;;;;;;-1.09;66.60;100450.68;1696846;82;26090;-78
2021/03/21 03:14:55;;;;;;;16.93;7.65;;;;;;;-1.06;66.80;100431.22;1681291;84;27563;-77
2021/03/21 03:17:37;;;;;;;16.60;8.13;;;;;;;-1.06;66.80;100431.22;1703689;80;26063;-77
2021/03/21 03:20:17;;;;;;;17.70;8.57;;;;;;;-1.06;66.79;100428.13;1720575;82;25772;-77
2021/03/21 03:22:55;;;;;;;17.95;7.20;;;;;;;-1.04;66.87;100408.28;1694029;83;26723;-77
2021/03/21 03:25:33;;;;;;;17.45;8.90;;;;;;;-1.04;66.87;100408.28;1725318;82;25948;-77
2021/03/21 03:28:21;;;;;;;18.10;8.68;;;;;;;-1.03;67.02;100406.03;1702684;82;27560;-78
2021/03/21 03:31:07;;;;;;;18.95;9.40;;;;;;;-1.04;67.00;100405.19;1720640;82;25804;-77
2021/03/21 03:33:31;;;;;;;18.25;8.53;;;;;;;-1.03;67.00;100400.30;1718331;82;25455;-78
2021/03/21 03:35:59;;;;;;;14.68;8.03;;;;;;;-1.00;67.06;100407.09;1695088;82;25856;-77
2021/03/21 03:38:26;;;;;;;18.25;8.10;;;;;;;-0.99;67.06;100401.73;1692492;83;25895;-77
2021/03/21 03:40:58;;;;;;;16.55;7.92;;;;;;;-0.96;67.12;100389.65;1704440;82;28424;-78
2021/03/21 03:43:46;;;;;;;15.60;7.95;;;;;;;-0.96;67.12;100389.65;1691712;82;26581;-77
2021/03/21 03:46:37;;;;;;;16.80;9.95;;;;;;;-0.98;67.01;100378.89;1697020;83;25884;-77
2021/03/21 03:49:33;;;;;;;;;;;;;;;-0.98;66.81;100377.10;1743251;81;25655;-78
2021/03/21 03:52:15;;;;;;;18.05;7.92;;;;;;;-0.90;66.90;100379.97;1689150;83;25822;-77
2021/03/21 03:54:54;;;;;;;17.77;9.18;;;;;;;-0.90;66.95;100377.84;1713584;82;27345;-78
2021/03/21 03:57:25;;;;;;;13.78;6.87;;;;;;;-0.88;66.90;100368.84;1706524;83;27412;-77
2021/03/21 04:00:18;;;;;;;13.95;6.83;;;;;;;-0.87;66.79;100365.28;1698526;82;25755;-77
2021/03/21 04:03:13;;;;;;;16.60;8.58;;;;;;;-0.87;66.87;100355.23;1697387;82;25801;-78
2021/03/21 04:06:02;;;;;;;14.70;7.75;;;;;;;-0.83;66.85;100356.66;1698252;82;26478;-78
2021/03/21 04:09:00;;;;;;;17.35;8.13;;;;;;;-0.77;66.93;100348.79;1713426;81;28913;-77
2021/03/21 04:11:37;;;;;;;17.55;8.50;;;;;;;-0.77;66.93;100348.79;1719346;81;25897;-77
2021/03/21 04:14:13;;;;;;;16.15;8.25;;;;;;;-0.77;66.55;100335.98;1725475;81;25901;-77
2021/03/21 04:16:55;;;;;;;13.62;7.20;;;;;;;-0.76;66.66;100328.94;1775579;80;25798;-77
2021/03/21 04:19:27;;;;;;;16.87;8.68;;;;;;;-0.77;66.56;100330.72;1799131;78;25783;-77
2021/03/21 04:22:23;;;;;;;24.95;9.95;;;;;;;-0.76;66.56;100332.88;1749077;78;27527;-78
2021/03/21 04:25:01;;;;;;;17.85;9.25;;;;;;;-0.75;66.27;100333.25;1769903;78;26294;-77
2021/03/21 04:27:42;;;;;;;15.32;8.73;;;;;;;-0.77;66.15;100309.34;1763005;80;25886;-78
2021/03/21 04:30:33;;;;;;;18.23;9.30;;;;;;;-0.77;66.15;100309.34;1796587;78;26383;-77
2021/03/21 04:33:02;;;;;;;;;;;;;;;-0.69;66.29;100311.72;1778648;78;25743;-77
2021/03/21 04:35:40;;;;;;;18.57;7.67;;;;;;;-0.69;66.32;100306.46;1749078;78;27603;-77
2021/03/21 04:38:25;;;;;;;15.38;8.33;;;;;;;-0.71;66.23;100308.37;1776427;78;25797;-77
2021/03/21 04:40:53;;;;;;;14.85;8.00;;;;;;;-0.70;66.33;100313.98;1777219;79;26396;-77
2021/03/21 04:43:40;;;;;;;21.42;9.45;;;;;;;-0.69;66.19;100302.52;1775645;78;25748;-77
2021/03/21 04:46:13;;;;;;;15.75;7.67;;;;;;;-0.68;66.15;100300.22;1784814;78;26417;-77
2021/03/21 04:48:40;;;;;;;20.55;8.63;;;;;;;-0.67;65.85;100290.55;1802312;78;27313;-77
2021/03/21 04:51:12;;;;;;;12.53;7.12;;;;;;;-0.67;66.01;100291.39;1775820;78;26355;-77
2021/03/21 04:54:05;;;;;;;16.00;8.43;;;;;;;-0.65;65.87;100289.95;1803055;78;25976;-77
2021/03/21 04:56:44;;;;;;;21.60;9.23;;;;;;;-0.65;65.99;100288.16;1719383;78;25754;-77
2021/03/21 04:59:23;;;;;;;18.95;8.88;;;;;;;-0.70;65.84;100275.00;1794012;79;25775;-77
2021/03/21 05:02:17;;;;;;;17.90;7.35;;;;;;;-0.60;65.93;100277.27;1751017;78;27549;-77
2021/03/21 05:05:18;;;;;;;15.48;7.58;;;;;;;-0.59;65.79;100268.41;1796527;78;25734;-78
2021/03/21 05:07:48;;;;;;;;;;;;;;;-0.60;65.73;100268.06;1783321;79;25852;-77
2021/03/21 05:10:24;;;;;;;12.43;7.33;;;;;;;-0.58;65.62;100272.72;1763843;81;26487;-77
2021/03/21 05:13:07;;;;;;;17.12;8.75;;;;;;;-0.58;65.71;100272.72;1761180;81;25767;-77
2021/03/21 05:15:54;;;;;;;17.70;8.45;;;;;;;-0.59;65.62;100260.04;1713830;81;27557;-77
2021/03/21 05:18:51;;;;;;;17.95;9.50;;;;;;;-0.57;65.70;100272.59;1736830;82;25605;-77
2021/03/21 05:21:45;;;;;;;18.32;8.55;;;;;;;-0.57;65.41;100258.59;1724959;82;25581;-77
2021/03/21 05:24:43;;;;;;;21.87;10.45;;;;;;;-0.56;65.50;100254.55;1734828;82;25835;-77
2021/03/21 05:27:19;;;;;;;20.50;8.43;;;;;;;-0.52;65.51;100252.48;1682819;83;25852;-77
2021/03/21 05:30:17;;;;;;;18.42;9.20;;;;;;;-0.52;65.56;100244.13;1677771;82;27545;-77
2021/03/21 05:32:51;;;;;;;20.77;8.85;;;;;;;-0.49;65.63;100249.63;1725682;82;26253;-78
2021/03/21 05:35:26;;;;;;;17.42;8.28;;;;;;;-0.48;65.50;100250.80;1708508;83;25847;-77
2021/03/21 05:38:43;;;;;;;20.05;9.83;;;;;;;-0.46;65.27;100248.03;1712718;82;26587;-77
2021/03/21 05:41:34;;;;;;;15.70;8.28;;;;;;;-0.45;65.46;100241.33;1729025;82;26031;-77
2021/03/21 05:44:36;;;;;;;15.63;6.62;;;;;;;-0.44;65.35;100251.38;1729224;82;27537;-77
2021/03/21 05:47:28;;;;;;;19.32;8.95;;;;;;;-0.43;65.34;100253.06;1698496;82;26110;-77
2021/03/21 05:50:27;;;;;;;16.55;8.45;;;;;;;-0.43;65.43;100255.22;1711226;82;25704;-77
2021/03/21 05:53:09;;;;;;;20.72;9.05;;;;;;;-0.42;65.40;100249.45;1699944;82;25807;-78
2021/03/21 05:55:59;;;;;;;16.02;9.45;;;;;;;-0.41;65.49;100242.77;1725764;80;25880;-77
2021/03/21 05:58:44;;;;;;;16.47;7.73;;;;;;;-0.40;65.43;100240.48;1678977;82;28385;-77
2021/03/21 06:01:55;;;;;;;17.45;9.98;;;;;;;-0.37;65.57;100232.34;1703721;82;25848;-77
2021/03/21 06:04:43;;;;;;;13.80;7.53;;;;;;;-0.35;65.57;100223.00;1718987;82;25788;-77
2021/03/21 06:07:49;;;;;;;14.55;6.65;;;;;;;-0.33;65.65;100216.66;1726616;81;26434;-77
2021/03/21 06:11:09;;;;;;;22.70;11.57;;;;;;;-0.31;66.17;100212.09;1717997;81;26076;-77
2021/03/21 06:13:51;;;;;;;22.95;10.18;;;;;;;-0.32;66.58;100209.09;1659260;85;27620;-77
2021/03/21 06:16:53;;;;;;;19.07;9.45;;;;;;;-0.32;66.84;100204.34;1704852;83;26173;-77
2021/03/21 06:19:40;;;;;;;16.75;9.78;;;;;;;-0.23;67.32;100193.86;1795108;79;25763;-77
2021/03/21 06:22:38;;;;;;;18.82;10.13;;;;;;;-0.28;67.27;100192.59;1750182;80;25771;-77
2021/03/21 06:25:41;;;;;;;24.92;12.35;;;;;;;-0.31;67.63;100188.41;1702322;82;27611;-77
2021/03/21 06:28:42;;;;;;;19.77;10.10;;;;;;;-0.32;67.88;100182.78;1711930;82;25442;-78
2021/03/21 06:32:04;;;;;;;15.25;9.53;;;;;;;-0.30;68.21;100178.22;1679695;84;25734;-78
2021/03/21 06:35:16;;;;;;;21.93;10.40;;;;;;;-0.32;68.32;100176.20;1680468;82;26000;-77
2021/03/21 06:38:01;;;;;;;22.02;10.82;;;;;;;-0.31;69.09;100167.84;1662501;84;26177;-77
2021/03/21 06:41:07;;;;;;;21.17;11.05;;;;;;;-0.29;68.71;100172.48;1688242;83;27447;-77
2021/03/21 06:44:13;;;;;;;20.23;11.65;;;;;;;-0.28;69.49;100167.59;1680879;84;26075;-77
2021/03/21 06:47:01;;;;;;;18.95;10.32;;;;;;;-0.30;70.05;100161.63;1660533;84;26433;-77
2021/03/21 06:50:23;;;;;;;21.93;11.22;;;;;;;-0.30;69.69;100156.36;1692245;84;25837;-77
2021/03/21 06:52:59;;;;;;;23.30;11.43;;;;;;;-0.27;70.38;100154.77;1658766;84;25495;-78
2021/03/21 06:55:46;;;;;;;18.23;11.20;;;;;;;-0.29;70.18;100152.75;1677530;84;27616;-78
2021/03/21 06:58:31;;;;;;;21.57;11.55;;;;;;;-0.25;70.43;100153.69;1656506;85;26079;-78
2021/03/21 07:01:15;;;;;;;22.77;12.55;;;;;;;-0.26;70.62;100157.30;1675397;82;25933;-77
2021/03/21 07:04:29;;;;;;;29.35;12.90;;;;;;;-0.26;71.62;100155.14;1657785;83;25860;-78
2021/03/21 07:07:51;;;;;;;16.40;10.28;;;;;;;-0.29;71.44;100149.64;1679730;83;25750;-77
2021/03/21 07:11:03;;;;;;;23.22;10.48;;;;;;;-0.29;72.15;100146.17;1656191;83;27559;-77
2021/03/21 07:14:02;;;;;;;19.00;11.25;;;;;;;-0.30;72.24;100141.38;1661188;85;26155;-77
2021/03/21 07:17:11;;;;;;;26.93;13.35;;;;;;;-0.29;72.35;100140.91;1660713;85;25872;-77
2021/03/21 07:20:06;;;;;;;22.50;10.85;;;;;;;-0.30;72.93;100126.10;1678206;83;25733;-78
2021/03/21 07:23:28;;;;;;;20.32;11.78;;;;;;;-0.33;73.16;100121.92;1652827;83;25392;-77
2021/03/21 07:26:19;;;;;;;23.30;11.83;;;;;;;-0.32;73.64;100120.14;1665687;84;27526;-77
2021/03/21 07:29:42;;;;;;;21.40;12.05;;;;;;;-0.33;72.99;100115.34;1657825;85;25851;-77
2021/03/21 07:32:33;;;;;;;22.00;12.07;;;;;;;-0.30;73.14;100109.00;1679594;83;25763;-77
2021/03/21 07:35:38;;;;;;;24.98;13.55;;;;;;;-0.28;73.84;100103.12;1652888;83;26442;-78
2021/03/21 07:38:35;;;;;;;44.18;21.62;;;;;;;-0.27;73.23;100098.19;1661152;83;25806;-78
2021/03/21 07:41:38;;;;;;;24.20;14.43;;;;;;;-0.23;73.39;100091.23;1687207;83;28504;-78
2021/03/21 07:44:29;;;;;;;28.17;13.95;;;;;;;-0.18;73.20;100082.47;1676479;83;26173;-78
2021/03/21 07:47:54;;;;;;;21.60;13.93;;;;;;;-0.14;72.98;100077.28;1654628;85;26487;-77
2021/03/21 07:50:45;;;;;;;16.37;11.50;;;;;;;-0.10;73.09;100071.27;1672126;84;26192;-77
2021/03/21 07:53:35;;;;;;;;;;;;;;;-0.08;73.76;100071.97;1667712;85;25953;-77
2021/03/21 07:56:27;;;;;;;26.12;13.55;;;;;;;-0.09;73.53;100072.95;1660788;85;28589;-77
2021/03/21 07:59:08;;;;;;;22.77;12.63;;;;;;;-0.11;73.20;100060.41;1681489;83;25765;-77
2021/03/21 08:01:37;;;;;;;26.02;14.70;;;;;;;-0.07;73.34;100066.59;1681070;83;26000;-77
2021/03/21 08:04:29;;;;;;;23.02;14.85;;;;;;;-0.04;73.26;100063.67;1655769;85;25926;-77
2021/03/21 08:07:18;;;;;;;24.27;13.90;;;;;;;-0.01;73.41;100053.37;1646573;85;25906;-77
2021/03/21 08:09:50;;;;;;;34.43;18.17;;;;;;;0.02;73.42;100047.01;1657558;84;27548;-77
2021/03/21 08:12:31;;;;;;;23.73;15.08;;;;;;;0.04;73.51;100042.44;1674385;83;26533;-77
2021/03/21 08:15:17;;;;;;;31.80;16.32;;;;;;;0.03;73.29;100044.71;1707799;83;25826;-77
2021/03/21 08:17:52;;;;;;;26.33;15.40;;;;;;;0.03;73.24;100049.50;1659097;83;26004;-77
2021/03/21 08:20:27;;;;;;;25.23;15.20;;;;;;;0.09;73.27;100046.33;1668087;83;26426;-77
2021/03/21 08:23:31;;;;;;;25.62;14.43;;;;;;;0.17;73.23;100044.36;1824847;77;25824;-77
2021/03/21 08:26:02;;;;;;;26.52;15.55;;;;;;;0.13;73.21;100042.45;1735381;78;25873;-77
2021/03/21 08:28:37;;;;;;;;;;;;;;;0.14;73.33;100034.92;1767019;80;28449;-77
2021/03/21 08:31:10;;;;;;;22.62;13.40;;;;;;;0.18;73.39;100034.16;1678073;82;25934;-78
2021/03/21 08:33:44;;;;;;;34.00;17.73;;;;;;;0.16;73.50;100032.98;1673231;82;25844;-77
2021/03/21 08:36:28;;;;;;;16.30;10.72;;;;;;;0.21;73.49;100031.27;1687130;82;25914;-77
2021/03/21 08:39:25;;;;;;;21.85;13.40;;;;;;;0.24;73.40;100030.50;1706916;82;26125;-77
2021/03/21 08:41:57;;;;;;;26.00;16.20;;;;;;;0.27;73.17;100025.45;1711025;82;27369;-77
2021/03/21 08:44:31;;;;;;;23.95;13.53;;;;;;;0.30;73.26;100018.61;1678682;82;25788;-78
2021/03/21 08:47:00;;;;;;;28.10;16.45;;;;;;;0.33;73.42;100023.59;1745282;80;25828;-77
2021/03/21 08:49:33;;;;;;;22.70;15.58;;;;;;;0.34;73.08;100032.66;1685221;82;25941;-78
2021/03/21 08:52:02;;;;;;;27.73;16.85;;;;;;;0.39;73.12;100036.21;1720931;80;25803;-77
2021/03/21 08:54:36;;;;;;;26.42;16.37;;;;;;;0.43;73.19;100030.54;1700856;81;27535;-77
2021/03/21 08:57:12;;;;;;;29.75;16.97;;;;;;;0.45;73.09;100031.74;1700498;80;27461;-77
2021/03/21 08:59:43;;;;;;;27.00;15.23;;;;;;;0.47;73.26;100030.61;1715793;80;25771;-79
2021/03/21 09:02:18;;;;;;;29.25;17.12;;;;;;;0.47;73.28;100020.07;1750712;80;25847;-80
2021/03/21 09:05:03;;;;;;;33.42;20.52;;;;;;;0.47;73.03;100017.44;1699880;81;26118;-80
2021/03/21 09:07:33;;;;;;;34.27;18.90;;;;;;;0.49;73.37;100022.08;1732856;81;27533;-78
2021/03/21 09:10:36;;;;;;;55.03;29.45;;;;;;;0.53;73.33;100013.44;1705957;82;26065;-78
2021/03/21 09:13:14;;;;;;;42.70;22.77;;;;;;;0.57;73.50;100006.92;1677576;81;25838;-78
2021/03/21 09:15:45;;;;;;;32.58;18.25;;;;;;;0.59;74.19;100004.98;1709018;82;26137;-78
2021/03/21 09:18:32;;;;;;;28.02;18.67;;;;;;;0.57;74.19;100016.14;1697424;82;25935;-78
2021/03/21 09:21:14;;;;;;;27.17;17.75;;;;;;;0.54;74.33;100008.50;1727143;82;28952;-78
2021/03/21 09:23:48;;;;;;;28.95;20.27;;;;;;;0.53;74.69;100003.74;1698894;82;26451;-78
2021/03/21 09:26:21;;;;;;;31.87;20.12;;;;;;;0.56;74.72;100004.77;1694025;82;25827;-78
2021/03/21 09:28:59;;;;;;;25.32;16.55;;;;;;;0.61;74.54;100005.20;1719620;82;25715;-78
2021/03/21 09:31:28;;;;;;;29.15;16.85;;;;;;;0.64;74.72;100001.45;1693788;82;25920;-78
2021/03/21 09:34:07;;;;;;;31.33;20.48;;;;;;;0.64;74.73;100006.22;1697618;82;27126;-78
2021/03/21 09:36:45;;;;;;;23.60;16.05;;;;;;;0.66;74.77;100004.78;1693555;83;26491;-78
2021/03/21 09:39:24;;;;;;;26.95;18.20;;;;;;;0.68;74.76;100001.02;1719040;82;25703;-78
2021/03/21 09:41:57;;;;;;;25.62;16.17;;;;;;;0.66;74.88;99995.56;1691812;82;25991;-78
2021/03/21 09:44:44;;;;;;;27.85;16.62;;;;;;;0.67;75.10;99996.73;1672082;82;26079;-78
2021/03/21 09:47:28;;;;;;;25.92;17.80;;;;;;;0.69;75.28;99997.90;1696661;82;27627;-78
2021/03/21 09:50:22;;;;;;;29.32;17.82;;;;;;;0.72;75.07;99991.89;1718869;82;25849;-78
2021/03/21 09:53:28;;;;;;;28.57;17.67;;;;;;;0.79;75.46;99994.80;1695763;82;25802;-78
2021/03/21 09:56:00;;;;;;;25.75;15.88;;;;;;;0.83;75.40;99994.02;1707658;82;25940;-77
2021/03/21 09:58:54;;;;;;;33.73;19.67;;;;;;;0.87;75.62;99994.09;1708113;82;25831;-77
2021/03/21 10:01:43;;;;;;;30.52;17.77;;;;;;;0.92;75.29;99987.92;1684392;82;27583;-78
2021/03/21 10:04:33;;;;;;;30.43;19.82;;;;;;;0.97;75.20;99990.95;1699497;82;25979;-78
2021/03/21 10:07:05;;;;;;;30.05;19.80;;;;;;;1.02;75.07;99984.78;1655945;82;25854;-78
2021/03/21 10:09:45;;;;;;;27.87;17.20;;;;;;;1.10;74.97;99977.82;1795738;79;25706;-78
2021/03/21 10:12:15;;;;;;;29.00;18.00;;;;;;;1.10;74.96;99970.39;1733884;80;26200;-78
2021/03/21 10:14:51;;;;;;;31.65;19.35;;;;;;;1.15;75.15;99976.92;1673449;82;27907;-77
2021/03/21 10:17:24;;;;;;;36.48;21.52;;;;;;;1.17;74.80;99977.61;1641003;84;25851;-78
2021/03/21 10:19:55;;;;;;;27.10;17.00;;;;;;;1.23;74.87;99973.55;1697649;82;26033;-77
2021/03/21 10:22:34;;;;;;;32.78;18.45;;;;;;;1.31;75.61;99978.47;1641855;84;25871;-77
2021/03/21 10:25:13;;;;;;;33.73;19.80;;;;;;;1.35;75.71;99985.11;1698024;82;26012;-78
2021/03/21 10:27:50;;;;;;;37.03;21.85;;;;;;;1.35;75.50;99979.00;1647632;85;27252;-78
2021/03/21 10:30:27;;;;;;;34.80;19.85;;;;;;;1.31;75.62;99979.78;1696026;83;25744;-78
2021/03/21 10:33:06;;;;;;;32.85;20.37;;;;;;;1.24;75.78;99970.77;1658433;84;25911;-78
2021/03/21 10:35:38;;;;;;;35.75;20.00;;;;;;;1.21;75.87;99968.44;1662426;84;25870;-78
2021/03/21 10:38:16;;;;;;;37.88;20.68;;;;;;;1.21;76.22;99968.44;1656520;84;26038;-77
2021/03/21 10:40:45;;;;;;;27.15;16.97;;;;;;;1.23;76.35;99966.96;1686641;84;26872;-77
2021/03/21 10:43:22;;;;;;;28.50;19.20;;;;;;;1.26;76.43;99968.01;1627361;84;25900;-77
2021/03/21 10:45:56;;;;;;;34.50;20.23;;;;;;;1.30;76.30;99963.63;1681714;84;25904;-77
2021/03/21 10:48:33;;;;;;;30.57;18.40;;;;;;;1.33;76.13;99958.05;1636500;84;25939;-77
2021/03/21 10:51:06;;;;;;;30.35;18.15;;;;;;;;;;1683879;84;25776;-78
2021/03/21 10:53:53;;;;;;;25.27;17.02;;;;;;;1.38;76.10;99951.86;1709718;82;27628;-78
2021/03/21 10:56:22;;;;;;;31.37;19.90;;;;;;;1.39;76.29;99954.02;1710058;82;26676;-77
2021/03/21 10:59:16;;;;;;;35.98;21.90;;;;;;;1.41;76.58;99948.11;1685811;83;25739;-77
2021/03/21 11:01:45;;;;;;;33.23;20.90;;;;;;;1.46;76.71;99955.92;1717683;82;26132;-78
2021/03/21 11:04:33;;;;;;;32.85;20.15;;;;;;;1.51;76.73;99954.17;1690844;82;26363;-77
2021/03/21 11:07:12;;;;;;;33.23;20.25;;;;;;;1.50;77.03;99947.22;1696077;83;27541;-78
2021/03/21 11:09:54;;;;;;;36.80;21.75;;;;;;;1.47;76.95;99942.25;1697093;82;25831;-78
2021/03/21 11:12:35;;;;;;;35.28;21.27;;;;;;;1.42;77.45;99949.27;1725003;82;25802;-78
2021/03/21 11:15:29;;;;;;;48.52;27.40;;;;;;;1.42;77.70;99941.84;1705629;82;26110;-78
2021/03/21 11:18:27;;;;;;;39.45;23.00;;;;;;;1.40;77.74;99938.52;1710465;83;25786;-77
2021/03/21 11:21:18;;;;;;;37.53;22.70;;;;;;;1.38;77.83;99933.88;1699426;82;27353;-78
2021/03/21 11:23:54;;;;;;;40.98;25.48;;;;;;;1.37;78.02;99926.91;1707839;83;32827;-78
2021/03/21 11:26:31;;;;;;;38.50;23.62;;;;;;;1.36;78.07;99928.75;1727930;82;25759;-78
2021/03/21 11:29:25;;;;;;;37.25;23.47;;;;;;;1.36;78.44;99923.95;1697497;82;26186;-78
2021/03/21 11:31:54;;;;;;;35.17;24.18;;;;;;;1.35;78.52;99919.16;1711947;83;25804;-77
2021/03/21 11:34:35;;;;;;;35.83;23.38;;;;;;;1.37;78.98;99914.56;1702814;82;27558;-77
2021/03/21 11:37:21;;;;;;;37.67;23.15;;;;;;;1.38;79.14;99906.16;1678699;82;25790;-78
2021/03/21 11:40:05;;;;;;;36.90;23.87;;;;;;;1.41;79.16;99915.13;1722204;81;25796;-78
2021/03/21 11:42:44;;;;;;;36.30;23.70;;;;;;;1.43;79.26;99921.89;1699041;82;26485;-78
2021/03/21 11:45:28;;;;;;;43.58;26.25;;;;;;;1.45;79.19;99916.49;1698083;82;25799;-78
2021/03/21 11:48:12;;;;;;;41.02;24.40;;;;;;;1.45;79.31;99912.02;1685869;82;28463;-77
2021/03/21 11:50:44;;;;;;;34.48;22.80;;;;;;;1.48;79.38;99915.70;1705699;82;26442;-77
2021/03/21 11:53:19;;;;;;;36.55;22.67;;;;;;;1.50;79.51;99907.15;1682955;82;25884;-77
2021/03/21 11:56:17;;;;;;;34.98;22.25;;;;;;;1.52;79.74;99894.64;1707610;82;25811;-78
2021/03/21 11:59:01;;;;;;;34.85;21.17;;;;;;;1.53;80.04;99883.60;1728159;82;25791;-78
2021/03/21 12:01:48;;;;;;;29.32;19.52;;;;;;;1.49;79.98;99880.91;1724108;82;27548;-78
2021/03/21 12:04:23;;;;;;;36.38;24.12;;;;;;;1.49;80.77;99876.95;1728858;82;26473;-77
2021/03/21 12:06:54;;;;;;;30.75;18.35;;;;;;;1.48;80.14;99878.76;1703102;82;25860;-78
2021/03/21 12:09:37;;;;;;;32.00;21.95;;;;;;;1.49;80.90;99879.11;1720432;82;26114;-77
2021/03/21 12:12:30;;;;;;;32.30;20.45;;;;;;;1.51;81.04;99881.12;1694882;82;25714;-78
2021/03/21 12:14:57;;;;;;;35.08;22.13;;;;;;;1.52;80.43;99880.13;1675389;83;27114;-79
2021/03/21 12:17:30;;;;;;;33.95;23.07;;;;;;;1.52;80.45;99871.36;1662336;83;25927;-78
2021/03/21 12:20:22;;;;;;;30.85;20.30;;;;;;;1.51;80.57;99859.16;1711731;82;25740;-78
2021/03/21 12:22:50;;;;;;;34.90;23.42;;;;;;;1.51;80.97;99867.08;1712725;82;25736;-78
2021/03/21 12:25:29;;;;;;;31.05;20.85;;;;;;;1.49;81.01;99872.52;1670964;82;25348;-77
2021/03/21 12:28:21;;;;;;;37.88;22.55;;;;;;;1.49;81.18;99870.36;1682115;83;27569;-77